Back to top

Gillette, WY weather

Gillette-Campbell County Airport (AMOS), Gillette, WY: 1/20/2020 03:53
Visibility10 statute milesclear sky
View 7-Day Forecast
Area Summary
Sky/CloudsSky Clear
Weather [last 24 hours]None
Pressure30.3 in.Hg (1026 hPa)
Dew Point12.9 °F (-10.6 °C)
Relative Humidity80.2 %
Temperature18 °F (-7.8 °C)blue thermometer
Wind Chill12.7 °F (-10.7 °C)
Reading TimeMinimum to Maximum Temperature
6-hr ending 1/19@22:5318 °F to 28 °F (-7.8 °C to -2.2 °C)
6-hr ending 1/19@16:5328 °F to 41 °F (-2.2 °C to 5 °C)
6-hr ending 1/19@10:5321.9 °F to 36 °F (-5.6 °C to 2.2 °C)
6-hr ending 1/19@04:539 °F to 25 °F (-12.8 °C to -3.9 °C)
24-hr ending 1/19@23:539 °F to 41 °F (-12.8 °C to 5 °C)
Wind3.45 MPH (3 KT) green arrow with no specific direction
Wind FromVariable (VRB Degrees)
Twilight Begins06:58Sunshine Yesterday
Sunrise07:30N/A
Sunset16:57
Twilight Ends17:29
METARKGCC 201053Z AUTO VRB03KT 10SM CLR M08/M11 A3030 RMK AO2 SLP294 T10781106
Tags: